Terminal Aerodrome Forecast
Issued by NWS

Home | Current Version | Previous Version | Text Only | Print | Product List | Glossary On
Versions: 1 2 3 4 5 6 7 8 9 10 11 12 13 14 15
205
FTUS45 KGJT 221731
TAFASE
TAF
KASE 221731Z 2218/2318 35004KT P6SM FEW015 SCT030 SCT070
     FM221900 24008KT P6SM VCTS SCT060 OVC100CB
     FM230000 19005KT P6SM -SHRA SCT020 BKN040
     FM230400 18005KT P6SM VCSH FEW015 SCT030 BKN060
     FM231500 VRB03KT P6SM VCSH FEW020 SCT040 BKN070=

USA.gov is the U.S. government's official web portal to all federal, state and local government web resources and services.